sensor_id;sensor_type;location;lat;lon;timestamp;P1;durP1;ratioP1;P2;durP2;ratioP2
1054;SDS011;516;51.482;7.120;2023-04-24T00:00:32;3.87;;;3.67;;
1054;SDS011;516;51.482;7.120;2023-04-24T00:06:20;3.00;;;2.80;;
1054;SDS011;516;51.482;7.120;2023-04-24T00:12:10;3.40;;;3.20;;
1054;SDS011;516;51.482;7.120;2023-04-24T00:17:58;3.33;;;3.13;;
1054;SDS011;516;51.482;7.120;2023-04-24T00:23:48;5.03;;;3.93;;
1054;SDS011;516;51.482;7.120;2023-04-24T00:29:35;5.67;;;3.67;;
1054;SDS011;516;51.482;7.120;2023-04-24T00:35:23;3.63;;;3.43;;
1054;SDS011;516;51.482;7.120;2023-04-24T00:51:02;3.67;;;3.47;;
1054;SDS011;516;51.482;7.120;2023-04-24T00:56:51;3.10;;;2.90;;
1054;SDS011;516;51.482;7.120;2023-04-24T01:02:39;3.87;;;3.47;;
1054;SDS011;516;51.482;7.120;2023-04-24T01:08:30;3.97;;;3.67;;
1054;SDS011;516;51.482;7.120;2023-04-24T01:14:17;3.80;;;3.50;;
1054;SDS011;516;51.482;7.120;2023-04-24T01:20:06;4.80;;;4.40;;
1054;SDS011;516;51.482;7.120;2023-04-24T01:25:54;3.70;;;3.50;;
1054;SDS011;516;51.482;7.120;2023-04-24T01:31:42;5.67;;;4.33;;
1054;SDS011;516;51.482;7.120;2023-04-24T01:37:30;4.30;;;4.00;;
1054;SDS011;516;51.482;7.120;2023-04-24T01:43:09;5.30;;;4.10;;
1054;SDS011;516;51.482;7.120;2023-04-24T01:48:57;6.00;;;5.40;;
1054;SDS011;516;51.482;7.120;2023-04-24T01:54:47;5.70;;;5.20;;
1054;SDS011;516;51.482;7.120;2023-04-24T02:00:34;5.53;;;5.03;;
1054;SDS011;516;51.482;7.120;2023-04-24T02:06:22;6.73;;;4.40;;
1054;SDS011;516;51.482;7.120;2023-04-24T02:12:11;5.40;;;4.73;;
1054;SDS011;516;51.482;7.120;2023-04-24T02:17:58;4.20;;;3.90;;
1054;SDS011;516;51.482;7.120;2023-04-24T02:23:46;6.70;;;6.10;;
1054;SDS011;516;51.482;7.120;2023-04-24T02:29:34;7.83;;;6.53;;
1054;SDS011;516;51.482;7.120;2023-04-24T02:35:22;9.10;;;7.63;;
1054;SDS011;516;51.482;7.120;2023-04-24T02:51:08;12.13;;;8.60;;
1054;SDS011;516;51.482;7.120;2023-04-24T02:56:57;11.63;;;10.47;;
1054;SDS011;516;51.482;7.120;2023-04-24T03:02:44;12.07;;;9.97;;
1054;SDS011;516;51.482;7.120;2023-04-24T03:08:32;11.07;;;9.87;;
1054;SDS011;516;51.482;7.120;2023-04-24T03:14:20;10.33;;;8.53;;
1054;SDS011;516;51.482;7.120;2023-04-24T03:20:08;15.80;;;11.57;;
1054;SDS011;516;51.482;7.120;2023-04-24T03:25:57;16.93;;;10.80;;
1054;SDS011;516;51.482;7.120;2023-04-24T03:31:44;14.10;;;11.73;;
1054;SDS011;516;51.482;7.120;2023-04-24T03:37:32;15.10;;;12.80;;
1054;SDS011;516;51.482;7.120;2023-04-24T03:43:16;13.17;;;10.97;;
1054;SDS011;516;51.482;7.120;2023-04-24T03:49:04;15.70;;;10.70;;
1054;SDS011;516;51.482;7.120;2023-04-24T03:54:52;16.83;;;12.57;;
1054;SDS011;516;51.482;7.120;2023-04-24T04:00:39;14.83;;;11.63;;
1054;SDS011;516;51.482;7.120;2023-04-24T04:06:27;15.93;;;11.30;;
1054;SDS011;516;51.482;7.120;2023-04-24T04:12:15;13.50;;;11.63;;
1054;SDS011;516;51.482;7.120;2023-04-24T04:18:03;16.37;;;12.47;;
1054;SDS011;516;51.482;7.120;2023-04-24T04:23:32;14.10;;;12.03;;
1054;SDS011;516;51.482;7.120;2023-04-24T04:29:20;17.10;;;12.73;;
1054;SDS011;516;51.482;7.120;2023-04-24T04:35:08;15.47;;;11.30;;
1054;SDS011;516;51.482;7.120;2023-04-24T04:40:56;13.13;;;10.60;;
1054;SDS011;516;51.482;7.120;2023-04-24T04:47:22;12.37;;;10.70;;
1054;SDS011;516;51.482;7.120;2023-04-24T04:53:10;14.90;;;13.30;;
1054;SDS011;516;51.482;7.120;2023-04-24T04:58:57;18.90;;;12.53;;
1054;SDS011;516;51.482;7.120;2023-04-24T05:04:46;12.97;;;9.50;;
1054;SDS011;516;51.482;7.120;2023-04-24T05:10:34;12.33;;;11.13;;
1054;SDS011;516;51.482;7.120;2023-04-24T05:16:24;14.47;;;12.33;;
1054;SDS011;516;51.482;7.120;2023-04-24T05:22:11;13.70;;;11.73;;
1054;SDS011;516;51.482;7.120;2023-04-24T05:27:59;12.47;;;9.20;;
1054;SDS011;516;51.482;7.120;2023-04-24T05:33:39;13.30;;;10.57;;
1054;SDS011;516;51.482;7.120;2023-04-24T05:39:27;9.00;;;8.10;;
1054;SDS011;516;51.482;7.120;2023-04-24T05:48:36;13.57;;;11.13;;
1054;SDS011;516;51.482;7.120;2023-04-24T05:54:24;14.63;;;11.73;;
1054;SDS011;516;51.482;7.120;2023-04-24T06:00:12;16.10;;;8.37;;
1054;SDS011;516;51.482;7.120;2023-04-24T06:06:00;14.70;;;11.50;;
1054;SDS011;516;51.482;7.120;2023-04-24T06:11:48;14.30;;;11.10;;
1054;SDS011;516;51.482;7.120;2023-04-24T06:17:37;9.17;;;8.20;;
1054;SDS011;516;51.482;7.120;2023-04-24T06:23:25;13.47;;;9.50;;
1054;SDS011;516;51.482;7.120;2023-04-24T06:29:13;12.93;;;9.47;;
1054;SDS011;516;51.482;7.120;2023-04-24T06:35:00;10.43;;;8.40;;
1054;SDS011;516;51.482;7.120;2023-04-24T06:40:48;13.63;;;9.73;;
1054;SDS011;516;51.482;7.120;2023-04-24T06:46:32;10.07;;;9.07;;
1054;SDS011;516;51.482;7.120;2023-04-24T06:52:20;9.07;;;5.83;;
1054;SDS011;516;51.482;7.120;2023-04-24T06:58:08;10.20;;;8.80;;
1054;SDS011;516;51.482;7.120;2023-04-24T07:03:56;11.77;;;9.83;;
1054;SDS011;516;51.482;7.120;2023-04-24T07:09:44;9.93;;;7.50;;
1054;SDS011;516;51.482;7.120;2023-04-24T07:15:32;8.00;;;7.20;;
1054;SDS011;516;51.482;7.120;2023-04-24T07:21:20;14.40;;;6.50;;
1054;SDS011;516;51.482;7.120;2023-04-24T07:26:40;5.60;;;4.60;;
1054;SDS011;516;51.482;7.120;2023-04-24T07:32:28;3.97;;;3.53;;
1054;SDS011;516;51.482;7.120;2023-04-24T07:38:16;5.00;;;4.40;;
1054;SDS011;516;51.482;7.120;2023-04-24T07:44:03;6.07;;;3.40;;
1054;SDS011;516;51.482;7.120;2023-04-24T07:49:51;3.47;;;2.93;;
1054;SDS011;516;51.482;7.120;2023-04-24T07:55:39;4.27;;;2.73;;
1054;SDS011;516;51.482;7.120;2023-04-24T08:01:26;3.90;;;2.50;;
1054;SDS011;516;51.482;7.120;2023-04-24T08:07:14;2.07;;;1.87;;
1054;SDS011;516;51.482;7.120;2023-04-24T08:13:02;1.90;;;1.33;;
1054;SDS011;516;51.482;7.120;2023-04-24T08:18:50;1.47;;;1.37;;
1054;SDS011;516;51.482;7.120;2023-04-24T08:24:38;3.43;;;1.70;;
1054;SDS011;516;51.482;7.120;2023-04-24T08:30:26;1.73;;;1.50;;
1054;SDS011;516;51.482;7.120;2023-04-24T08:36:12;1.70;;;1.60;;
1054;SDS011;516;51.482;7.120;2023-04-24T08:42:00;1.73;;;1.63;;
1054;SDS011;516;51.482;7.120;2023-04-24T08:51:13;2.60;;;1.90;;
1054;SDS011;516;51.482;7.120;2023-04-24T08:57:03;3.70;;;2.73;;
1054;SDS011;516;51.482;7.120;2023-04-24T09:02:52;4.43;;;4.03;;
1054;SDS011;516;51.482;7.120;2023-04-24T09:08:40;4.07;;;3.70;;
1054;SDS011;516;51.482;7.120;2023-04-24T09:14:29;4.10;;;2.53;;
1054;SDS011;516;51.482;7.120;2023-04-24T09:20:19;6.60;;;3.80;;
1054;SDS011;516;51.482;7.120;2023-04-24T09:26:07;3.87;;;3.00;;
1054;SDS011;516;51.482;7.120;2023-04-24T09:31:56;6.07;;;3.00;;
1054;SDS011;516;51.482;7.120;2023-04-24T09:37:45;3.97;;;3.63;;
1054;SDS011;516;51.482;7.120;2023-04-24T09:43:34;3.53;;;3.03;;
1054;SDS011;516;51.482;7.120;2023-04-24T09:49:10;4.73;;;3.87;;
1054;SDS011;516;51.482;7.120;2023-04-24T09:55:02;4.33;;;2.73;;
1054;SDS011;516;51.482;7.120;2023-04-24T10:00:39;5.30;;;4.20;;
1054;SDS011;516;51.482;7.120;2023-04-24T10:06:32;4.83;;;3.40;;
1054;SDS011;516;51.482;7.120;2023-04-24T10:12:21;8.13;;;4.20;;
1054;SDS011;516;51.482;7.120;2023-04-24T10:17:51;7.07;;;5.70;;
1054;SDS011;516;51.482;7.120;2023-04-24T10:23:39;7.50;;;4.30;;
1054;SDS011;516;51.482;7.120;2023-04-24T10:29:28;7.67;;;5.73;;
1054;SDS011;516;51.482;7.120;2023-04-24T10:35:18;8.33;;;7.20;;
1054;SDS011;516;51.482;7.120;2023-04-24T10:41:09;10.53;;;6.23;;
1054;SDS011;516;51.482;7.120;2023-04-24T11:03:30;14.97;;;8.97;;
1054;SDS011;516;51.482;7.120;2023-04-24T11:09:58;17.33;;;7.33;;
1054;SDS011;516;51.482;7.120;2023-04-24T11:22:02;9.63;;;6.87;;
1054;SDS011;516;51.482;7.120;2023-04-24T11:28:20;9.60;;;6.20;;
1054;SDS011;516;51.482;7.120;2023-04-24T11:34:12;18.73;;;8.33;;
1054;SDS011;516;51.482;7.120;2023-04-24T11:40:01;10.23;;;7.70;;
1054;SDS011;516;51.482;7.120;2023-04-24T11:45:50;11.47;;;8.00;;
1054;SDS011;516;51.482;7.120;2023-04-24T11:51:37;15.90;;;6.50;;
1054;SDS011;516;51.482;7.120;2023-04-24T12:00:43;9.23;;;6.77;;
1054;SDS011;516;51.482;7.120;2023-04-24T12:06:32;5.37;;;4.70;;
1054;SDS011;516;51.482;7.120;2023-04-24T12:12:19;9.40;;;6.23;;
1054;SDS011;516;51.482;7.120;2023-04-24T12:18:07;6.40;;;5.20;;
1054;SDS011;516;51.482;7.120;2023-04-24T12:23:59;8.70;;;5.77;;
1054;SDS011;516;51.482;7.120;2023-04-24T12:29:55;9.90;;;6.00;;
1054;SDS011;516;51.482;7.120;2023-04-24T12:35:44;9.20;;;7.83;;
1054;SDS011;516;51.482;7.120;2023-04-24T12:41:32;9.73;;;5.50;;
1054;SDS011;516;51.482;7.120;2023-04-24T12:47:20;10.00;;;6.53;;
1054;SDS011;516;51.482;7.120;2023-04-24T12:52:51;13.63;;;6.20;;
1054;SDS011;516;51.482;7.120;2023-04-24T12:58:38;6.77;;;6.17;;
1054;SDS011;516;51.482;7.120;2023-04-24T13:04:26;6.27;;;5.13;;
1054;SDS011;516;51.482;7.120;2023-04-24T13:10:13;7.80;;;5.47;;
1054;SDS011;516;51.482;7.120;2023-04-24T13:16:01;6.80;;;5.93;;
1054;SDS011;516;51.482;7.120;2023-04-24T13:21:49;6.40;;;5.90;;
1054;SDS011;516;51.482;7.120;2023-04-24T13:27:38;6.67;;;5.80;;
1054;SDS011;516;51.482;7.120;2023-04-24T13:33:26;6.20;;;5.63;;
1054;SDS011;516;51.482;7.120;2023-04-24T13:39:13;5.20;;;4.73;;
1054;SDS011;516;51.482;7.120;2023-04-24T13:45:01;5.33;;;4.93;;
1054;SDS011;516;51.482;7.120;2023-04-24T14:00:44;8.60;;;6.77;;
1054;SDS011;516;51.482;7.120;2023-04-24T14:06:32;6.27;;;5.77;;
1054;SDS011;516;51.482;7.120;2023-04-24T14:12:20;6.37;;;5.90;;
1054;SDS011;516;51.482;7.120;2023-04-24T14:18:07;7.27;;;6.77;;
1054;SDS011;516;51.482;7.120;2023-04-24T14:23:55;5.67;;;5.13;;
1054;SDS011;516;51.482;7.120;2023-04-24T14:29:43;6.80;;;6.20;;
1054;SDS011;516;51.482;7.120;2023-04-24T14:35:32;6.23;;;5.93;;
1054;SDS011;516;51.482;7.120;2023-04-24T14:41:21;6.40;;;5.93;;
1054;SDS011;516;51.482;7.120;2023-04-24T14:47:09;6.73;;;6.27;;
1054;SDS011;516;51.482;7.120;2023-04-24T14:52:53;6.03;;;5.73;;
1054;SDS011;516;51.482;7.120;2023-04-24T14:58:42;6.20;;;5.60;;
1054;SDS011;516;51.482;7.120;2023-04-24T15:04:29;5.93;;;5.50;;
1054;SDS011;516;51.482;7.120;2023-04-24T15:10:17;5.80;;;5.40;;
1054;SDS011;516;51.482;7.120;2023-04-24T15:16:05;4.60;;;4.20;;
1054;SDS011;516;51.482;7.120;2023-04-24T15:21:53;6.87;;;4.53;;
1054;SDS011;516;51.482;7.120;2023-04-24T15:27:42;6.60;;;3.93;;
1054;SDS011;516;51.482;7.120;2023-04-24T15:33:30;4.77;;;4.27;;
1054;SDS011;516;51.482;7.120;2023-04-24T15:39:19;5.07;;;4.57;;
1054;SDS011;516;51.482;7.120;2023-04-24T15:45:09;5.47;;;4.97;;
1054;SDS011;516;51.482;7.120;2023-04-24T16:00:45;6.93;;;6.33;;
1054;SDS011;516;51.482;7.120;2023-04-24T16:06:14;4.57;;;4.27;;
1054;SDS011;516;51.482;7.120;2023-04-24T16:12:01;4.90;;;4.70;;
1054;SDS011;516;51.482;7.120;2023-04-24T16:17:49;6.10;;;5.50;;
1054;SDS011;516;51.482;7.120;2023-04-24T16:23:37;6.80;;;6.20;;
1054;SDS011;516;51.482;7.120;2023-04-24T16:29:25;7.70;;;7.10;;
1054;SDS011;516;51.482;7.120;2023-04-24T16:35:13;6.17;;;5.77;;
1054;SDS011;516;51.482;7.120;2023-04-24T16:41:00;7.37;;;6.77;;
1054;SDS011;516;51.482;7.120;2023-04-24T16:46:48;6.53;;;6.13;;
1054;SDS011;516;51.482;7.120;2023-04-24T16:52:37;6.30;;;5.90;;
1054;SDS011;516;51.482;7.120;2023-04-24T16:58:24;6.37;;;5.97;;
1054;SDS011;516;51.482;7.120;2023-04-24T17:04:12;7.33;;;6.83;;
1054;SDS011;516;51.482;7.120;2023-04-24T17:10:00;6.50;;;6.10;;
1054;SDS011;516;51.482;7.120;2023-04-24T17:15:47;6.27;;;5.67;;
1054;SDS011;516;51.482;7.120;2023-04-24T17:21:35;5.17;;;4.67;;
1054;SDS011;516;51.482;7.120;2023-04-24T17:27:23;7.93;;;6.27;;
1054;SDS011;516;51.482;7.120;2023-04-24T17:33:11;6.27;;;5.33;;
1054;SDS011;516;51.482;7.120;2023-04-24T17:38:58;5.90;;;5.37;;
1054;SDS011;516;51.482;7.120;2023-04-24T17:44:46;5.97;;;5.30;;
1054;SDS011;516;51.482;7.120;2023-04-24T18:00:43;10.77;;;6.90;;
1054;SDS011;516;51.482;7.120;2023-04-24T18:06:31;6.67;;;6.07;;
1054;SDS011;516;51.482;7.120;2023-04-24T18:12:19;6.87;;;6.27;;
1054;SDS011;516;51.482;7.120;2023-04-24T18:18:06;8.63;;;6.60;;
1054;SDS011;516;51.482;7.120;2023-04-24T18:23:54;7.33;;;6.30;;
1054;SDS011;516;51.482;7.120;2023-04-24T18:29:46;8.13;;;6.50;;
1054;SDS011;516;51.482;7.120;2023-04-24T18:35:34;7.13;;;6.43;;
1054;SDS011;516;51.482;7.120;2023-04-24T18:41:21;11.43;;;7.10;;
1054;SDS011;516;51.482;7.120;2023-04-24T18:47:09;11.97;;;8.57;;
1054;SDS011;516;51.482;7.120;2023-04-24T18:52:51;17.03;;;8.77;;
1054;SDS011;516;51.482;7.120;2023-04-24T18:58:39;8.37;;;7.23;;
1054;SDS011;516;51.482;7.120;2023-04-24T19:04:30;10.80;;;6.00;;
1054;SDS011;516;51.482;7.120;2023-04-24T19:10:18;7.50;;;6.80;;
1054;SDS011;516;51.482;7.120;2023-04-24T19:16:05;11.77;;;9.30;;
1054;SDS011;516;51.482;7.120;2023-04-24T19:21:53;8.13;;;7.37;;
1054;SDS011;516;51.482;7.120;2023-04-24T19:27:41;11.27;;;8.57;;
1054;SDS011;516;51.482;7.120;2023-04-24T19:33:29;9.00;;;6.57;;
1054;SDS011;516;51.482;7.120;2023-04-24T19:39:16;9.70;;;7.37;;
1054;SDS011;516;51.482;7.120;2023-04-24T19:45:04;15.17;;;7.33;;
1054;SDS011;516;51.482;7.120;2023-04-24T20:00:42;12.07;;;9.70;;
1054;SDS011;516;51.482;7.120;2023-04-24T20:06:30;18.73;;;11.00;;
1054;SDS011;516;51.482;7.120;2023-04-24T20:12:18;11.30;;;8.73;;
1054;SDS011;516;51.482;7.120;2023-04-24T20:18:06;20.30;;;9.03;;
1054;SDS011;516;51.482;7.120;2023-04-24T20:23:54;8.23;;;7.37;;
1054;SDS011;516;51.482;7.120;2023-04-24T20:29:42;10.90;;;8.00;;
1054;SDS011;516;51.482;7.120;2023-04-24T20:35:29;9.80;;;8.83;;
1054;SDS011;516;51.482;7.120;2023-04-24T20:41:17;8.80;;;7.63;;
1054;SDS011;516;51.482;7.120;2023-04-24T20:47:05;11.20;;;7.50;;
1054;SDS011;516;51.482;7.120;2023-04-24T20:52:51;9.97;;;7.10;;
1054;SDS011;516;51.482;7.120;2023-04-24T20:58:39;19.10;;;11.23;;
1054;SDS011;516;51.482;7.120;2023-04-24T21:04:27;13.50;;;8.93;;
1054;SDS011;516;51.482;7.120;2023-04-24T21:10:14;12.27;;;8.23;;
1054;SDS011;516;51.482;7.120;2023-04-24T21:16:02;13.90;;;7.37;;
1054;SDS011;516;51.482;7.120;2023-04-24T21:21:50;9.83;;;8.53;;
1054;SDS011;516;51.482;7.120;2023-04-24T21:27:37;10.07;;;7.87;;
1054;SDS011;516;51.482;7.120;2023-04-24T21:33:25;11.77;;;7.33;;
1054;SDS011;516;51.482;7.120;2023-04-24T21:39:13;14.30;;;8.00;;
1054;SDS011;516;51.482;7.120;2023-04-24T21:45:01;11.47;;;8.47;;
1054;SDS011;516;51.482;7.120;2023-04-24T21:50:30;12.23;;;8.97;;
1054;SDS011;516;51.482;7.120;2023-04-24T21:52:55;11.77;;;8.43;;
1054;SDS011;516;51.482;7.120;2023-04-24T21:55:21;18.43;;;9.50;;
1054;SDS011;516;51.482;7.120;2023-04-24T22:01:09;11.77;;;9.10;;
1054;SDS011;516;51.482;7.120;2023-04-24T22:06:57;11.40;;;9.10;;
1054;SDS011;516;51.482;7.120;2023-04-24T22:12:45;13.87;;;8.03;;
1054;SDS011;516;51.482;7.120;2023-04-24T22:18:34;12.27;;;8.97;;
1054;SDS011;516;51.482;7.120;2023-04-24T22:24:21;12.80;;;7.80;;
1054;SDS011;516;51.482;7.120;2023-04-24T22:30:10;10.20;;;8.20;;
1054;SDS011;516;51.482;7.120;2023-04-24T22:35:57;11.43;;;8.33;;
1054;SDS011;516;51.482;7.120;2023-04-24T22:41:45;12.80;;;9.97;;
1054;SDS011;516;51.482;7.120;2023-04-24T22:47:34;13.93;;;8.30;;
1054;SDS011;516;51.482;7.120;2023-04-24T23:03:15;17.33;;;8.80;;
1054;SDS011;516;51.482;7.120;2023-04-24T23:09:03;14.77;;;9.40;;
1054;SDS011;516;51.482;7.120;2023-04-24T23:14:51;21.33;;;8.90;;
1054;SDS011;516;51.482;7.120;2023-04-24T23:20:39;15.57;;;9.33;;
1054;SDS011;516;51.482;7.120;2023-04-24T23:26:26;12.23;;;7.50;;
1054;SDS011;516;51.482;7.120;2023-04-24T23:32:14;17.07;;;8.00;;
1054;SDS011;516;51.482;7.120;2023-04-24T23:38:02;15.33;;;9.10;;
1054;SDS011;516;51.482;7.120;2023-04-24T23:43:49;15.47;;;9.53;;
1054;SDS011;516;51.482;7.120;2023-04-24T23:49:37;14.40;;;8.10;;
1054;SDS011;516;51.482;7.120;2023-04-24T23:55:22;17.97;;;8.10;;
